createdAt,value
2017-08-20T00:00:02.609Z,99.80
2017-08-20T00:02:31.021Z,99.90
2017-08-20T00:04:59.421Z,99.80
2017-08-20T00:07:27.833Z,99.50
2017-08-20T00:09:56.245Z,99.30
2017-08-20T00:12:24.671Z,99.90
2017-08-20T00:14:53.842Z,99.10
2017-08-20T00:17:22.247Z,99.10
2017-08-20T00:19:50.645Z,99.20
2017-08-20T00:22:19.107Z,99.20
2017-08-20T00:24:47.518Z,99.20
2017-08-20T00:27:15.913Z,99.70
2017-08-20T00:29:45.050Z,99.20
2017-08-20T00:32:13.458Z,98.90
2017-08-20T00:34:41.873Z,99.10
2017-08-20T00:37:10.305Z,99.10
2017-08-20T00:39:38.721Z,99.90
2017-08-20T00:42:07.118Z,99.90
2017-08-20T00:44:35.553Z,99.40
2017-08-20T00:47:03.966Z,99.10
2017-08-20T00:49:32.358Z,99.70
2017-08-20T00:52:00.799Z,99.90
2017-08-20T00:54:29.198Z,99.90
2017-08-20T00:56:57.594Z,99.80
2017-08-20T00:59:26.013Z,99.90
2017-08-20T01:01:54.416Z,99.10
2017-08-20T01:04:22.841Z,98.10
2017-08-20T01:06:51.242Z,98.90
2017-08-20T01:09:19.657Z,99.30
2017-08-20T01:11:48.085Z,99.60
2017-08-20T01:14:16.497Z,99.90
2017-08-20T01:16:44.901Z,99.90
2017-08-20T01:19:13.326Z,99.20
2017-08-20T01:21:41.734Z,99.20
2017-08-20T01:24:10.153Z,99.50
2017-08-20T01:26:39.346Z,98.90
2017-08-20T01:29:07.768Z,98.90
2017-08-20T01:31:37.698Z,98.10
2017-08-20T01:34:06.161Z,98.30
2017-08-20T01:36:34.561Z,99.00
2017-08-20T01:39:02.965Z,99.20
2017-08-20T01:41:32.203Z,98.60
2017-08-20T01:44:01.384Z,98.40
2017-08-20T01:46:29.785Z,98.40
2017-08-20T01:48:58.217Z,98.80
2017-08-20T01:51:26.613Z,99.20
2017-08-20T01:53:55.030Z,99.00
2017-08-20T01:56:23.466Z,99.00
2017-08-20T01:58:51.889Z,99.40
2017-08-20T02:01:20.341Z,99.80
2017-08-20T02:03:48.750Z,99.50
2017-08-20T02:06:17.181Z,99.70
2017-08-20T02:08:45.603Z,99.50
2017-08-20T02:11:14.027Z,99.90
2017-08-20T02:13:42.481Z,98.90
2017-08-20T02:16:11.154Z,98.80
2017-08-20T02:18:39.577Z,99.30
2017-08-20T02:21:08.002Z,98.50
2017-08-20T02:23:36.426Z,98.80
2017-08-20T02:26:04.824Z,99.10
2017-08-20T02:28:33.233Z,98.70
2017-08-20T02:31:01.662Z,99.40
2017-08-20T02:33:30.067Z,99.80
2017-08-20T02:35:58.282Z,98.80
2017-08-20T02:38:26.763Z,99.70
2017-08-20T02:40:55.165Z,99.30
2017-08-20T02:43:23.569Z,99.60
2017-08-20T02:45:52.005Z,99.30
2017-08-20T02:48:20.494Z,99.40
2017-08-20T02:50:48.961Z,99.60
2017-08-20T02:53:17.433Z,99.80
2017-08-20T02:55:45.854Z,98.90
2017-08-20T02:58:14.262Z,98.60
2017-08-20T03:00:42.678Z,99.50
2017-08-20T03:03:11.079Z,98.90
2017-08-20T03:05:39.507Z,99.00
2017-08-20T03:08:07.925Z,99.90
2017-08-20T03:10:36.322Z,99.30
2017-08-20T03:13:04.739Z,99.30
2017-08-20T03:15:33.141Z,99.60
2017-08-20T03:18:01.549Z,99.90
2017-08-20T03:20:29.982Z,99.90
2017-08-20T03:22:58.393Z,99.90
2017-08-20T03:25:26.803Z,99.90
2017-08-20T03:27:55.240Z,99.90
2017-08-20T03:30:23.675Z,99.90
2017-08-20T03:32:52.858Z,99.90
2017-08-20T03:35:21.557Z,99.90
2017-08-20T03:37:49.963Z,99.90
2017-08-20T03:40:18.368Z,99.90
2017-08-20T03:42:46.793Z,99.90
2017-08-20T03:45:15.201Z,99.90
2017-08-20T03:47:44.401Z,99.90
2017-08-20T03:50:12.815Z,99.90
2017-08-20T03:52:41.221Z,99.90
2017-08-20T03:55:09.646Z,99.90
2017-08-20T03:57:38.069Z,99.90
2017-08-20T04:00:06.542Z,99.90
2017-08-20T04:02:34.982Z,99.90
2017-08-20T04:05:03.402Z,99.90
2017-08-20T04:07:31.798Z,99.90
2017-08-20T04:10:00.209Z,99.90
2017-08-20T04:12:28.611Z,99.70
2017-08-20T04:14:57.013Z,99.60
2017-08-20T04:17:25.433Z,99.90
2017-08-20T04:19:53.871Z,99.90
2017-08-20T04:22:22.290Z,99.90
2017-08-20T04:24:50.933Z,99.90
2017-08-20T04:27:19.337Z,99.80
2017-08-20T04:29:47.742Z,99.00
2017-08-20T04:32:16.157Z,99.60
2017-08-20T04:34:44.561Z,99.10
2017-08-20T04:37:12.965Z,99.60
2017-08-20T04:39:41.421Z,99.40
2017-08-20T04:42:09.831Z,99.20
2017-08-20T04:44:38.231Z,99.40
2017-08-20T04:47:06.641Z,99.20
2017-08-20T04:49:35.059Z,99.40
2017-08-20T04:52:03.462Z,98.90
2017-08-20T04:54:31.885Z,98.70
2017-08-20T04:57:00.303Z,98.90
2017-08-20T04:59:28.725Z,98.80
2017-08-20T05:01:57.179Z,98.80
2017-08-20T05:04:25.647Z,98.90
2017-08-20T05:06:54.045Z,98.50
2017-08-20T05:09:22.455Z,98.30
2017-08-20T05:11:50.874Z,98.60
2017-08-20T05:14:19.288Z,98.60
2017-08-20T05:16:48.414Z,98.40
2017-08-20T05:19:16.893Z,98.60
2017-08-20T05:21:45.327Z,98.00
2017-08-20T05:24:14.449Z,98.20
2017-08-20T05:26:42.933Z,97.90
2017-08-20T05:29:11.361Z,97.70
2017-08-20T05:31:39.768Z,97.50
2017-08-20T05:34:08.212Z,97.60
2017-08-20T05:36:36.636Z,97.10
2017-08-20T05:39:04.384Z,97.20
2017-08-20T05:41:32.789Z,97.40
2017-08-20T05:44:01.193Z,97.10
2017-08-20T05:46:29.621Z,97.00
2017-08-20T05:48:58.026Z,97.20
2017-08-20T05:51:26.421Z,97.20
2017-08-20T05:53:54.939Z,97.00
2017-08-20T05:56:23.387Z,97.00
2017-08-20T05:58:51.818Z,96.60
2017-08-20T06:01:20.250Z,96.30
2017-08-20T06:03:48.661Z,96.20
2017-08-20T06:06:17.066Z,96.40
2017-08-20T06:08:45.485Z,96.10
2017-08-20T06:11:13.895Z,95.70
2017-08-20T06:13:42.297Z,95.70
2017-08-20T06:16:11.493Z,95.20
2017-08-20T06:18:39.897Z,95.20
2017-08-20T06:21:08.293Z,95.10
2017-08-20T06:23:36.763Z,95.60
2017-08-20T06:26:05.165Z,95.40
2017-08-20T06:28:33.577Z,95.50
2017-08-20T06:31:02.006Z,95.30
2017-08-20T06:33:30.401Z,95.10
2017-08-20T06:35:58.817Z,94.50
2017-08-20T06:38:27.270Z,94.50
2017-08-20T06:40:55.669Z,94.50
2017-08-20T06:43:24.107Z,94.50
2017-08-20T06:45:52.563Z,94.60
2017-08-20T06:48:20.973Z,94.40
2017-08-20T06:50:49.378Z,94.70
2017-08-20T06:53:17.794Z,94.20
2017-08-20T06:55:46.948Z,94.50
2017-08-20T06:58:15.429Z,94.60
2017-08-20T07:00:43.859Z,95.00
2017-08-20T07:03:12.310Z,94.20
2017-08-20T07:05:40.840Z,94.50
2017-08-20T07:08:09.240Z,93.90
2017-08-20T07:10:37.644Z,94.50
2017-08-20T07:13:06.302Z,94.50
2017-08-20T07:15:34.701Z,94.40
2017-08-20T07:18:02.917Z,93.70
2017-08-20T07:20:31.389Z,94.70
2017-08-20T07:22:59.850Z,93.40
2017-08-20T07:25:28.297Z,93.30
2017-08-20T07:27:56.713Z,93.30
2017-08-20T07:30:25.120Z,93.40
2017-08-20T07:32:53.527Z,92.30
2017-08-20T07:35:22.729Z,91.60
2017-08-20T07:37:51.139Z,91.50
2017-08-20T07:40:19.805Z,91.30
2017-08-20T07:42:48.461Z,91.50
2017-08-20T07:45:16.864Z,91.20
2017-08-20T07:47:45.262Z,91.50
2017-08-20T07:50:13.721Z,91.00
2017-08-20T07:52:42.904Z,91.20
2017-08-20T07:55:11.302Z,91.20
2017-08-20T07:57:39.826Z,91.50
2017-08-20T08:02:41.399Z,91.70
2017-08-20T08:05:09.913Z,90.90
2017-08-20T08:10:19.585Z,88.30
2017-08-20T08:12:48.155Z,88.20
2017-08-20T08:15:16.615Z,87.40
2017-08-20T08:17:45.751Z,84.70
2017-08-20T08:20:14.501Z,85.80
2017-08-20T08:22:43.221Z,83.00
2017-08-20T08:25:12.068Z,82.20
2017-08-20T08:27:40.765Z,82.00
2017-08-20T08:30:09.326Z,82.60
2017-08-20T08:32:38.026Z,81.70
2017-08-20T08:35:06.526Z,81.10
2017-08-20T08:37:35.084Z,81.60
2017-08-20T08:40:03.774Z,80.20
2017-08-20T08:42:32.566Z,78.00
2017-08-20T08:45:01.096Z,76.50
2017-08-20T08:47:29.576Z,75.90
2017-08-20T08:49:58.060Z,76.00
2017-08-20T08:52:26.573Z,75.40
2017-08-20T08:54:55.044Z,76.30
2017-08-20T08:57:23.558Z,74.20
2017-08-20T08:59:52.279Z,69.40
2017-08-20T09:02:20.756Z,72.40
2017-08-20T09:04:49.254Z,69.30
2017-08-20T09:07:17.762Z,61.60
2017-08-20T09:09:46.264Z,55.30
2017-08-20T09:12:14.778Z,52.50
2017-08-20T09:14:43.246Z,55.50
2017-08-20T09:17:11.744Z,58.80
2017-08-20T09:19:40.236Z,58.60
2017-08-20T09:22:08.693Z,57.70
2017-08-20T09:24:37.154Z,64.70
2017-08-20T09:27:05.675Z,62.60
2017-08-20T09:29:34.945Z,65.50
2017-08-20T09:32:03.395Z,68.70
2017-08-20T09:34:32.012Z,68.00
2017-08-20T09:37:00.438Z,67.50
2017-08-20T09:39:28.916Z,65.90
2017-08-20T09:41:57.355Z,54.70
2017-08-20T09:44:25.933Z,47.80
2017-08-20T09:46:54.431Z,49.20
2017-08-20T09:49:22.947Z,43.50
2017-08-20T09:51:51.508Z,41.50
2017-08-20T09:54:20.006Z,39.90
2017-08-20T09:56:48.505Z,36.70
2017-08-20T09:59:16.972Z,36.90
2017-08-20T10:01:45.426Z,40.70
2017-08-20T10:04:13.949Z,39.20
2017-08-20T10:06:42.381Z,38.20
2017-08-20T10:09:10.841Z,36.40
2017-08-20T10:11:39.288Z,44.50
2017-08-20T10:14:07.763Z,46.90
2017-08-20T10:16:36.210Z,44.30
2017-08-20T10:19:04.649Z,38.20
2017-08-20T10:21:33.125Z,37.80
2017-08-20T10:24:01.561Z,37.40
2017-08-20T10:26:29.979Z,43.30
2017-08-20T10:28:58.420Z,40.90
2017-08-20T10:31:26.838Z,41.10
2017-08-20T10:33:55.289Z,46.50
2017-08-20T10:36:23.747Z,46.60
2017-08-20T10:38:52.960Z,34.80
2017-08-20T10:41:21.489Z,34.60
2017-08-20T10:43:49.910Z,36.10
2017-08-20T10:46:18.352Z,40.30
2017-08-20T10:48:46.849Z,42.60
2017-08-20T10:51:15.286Z,44.30
2017-08-20T10:53:43.729Z,42.50
2017-08-20T10:56:12.188Z,47.00
2017-08-20T10:58:40.617Z,48.80
2017-08-20T11:01:09.050Z,43.30
2017-08-20T11:03:37.519Z,48.80
2017-08-20T11:06:05.945Z,45.20
2017-08-20T11:08:34.354Z,51.40
2017-08-20T11:11:17.296Z,48.40
2017-08-20T11:13:45.708Z,50.60
2017-08-20T11:16:14.165Z,44.90
2017-08-20T11:18:42.583Z,45.20
2017-08-20T11:21:10.997Z,40.10
2017-08-20T11:23:39.473Z,41.00
2017-08-20T11:26:07.916Z,46.60
2017-08-20T11:28:36.341Z,47.00
2017-08-20T11:31:04.776Z,47.70
2017-08-20T11:33:33.206Z,52.20
2017-08-20T11:36:01.623Z,53.50
2017-08-20T11:38:30.049Z,56.00
2017-08-20T11:40:58.476Z,55.30
2017-08-20T11:43:26.896Z,54.90
2017-08-20T11:45:55.820Z,54.80
2017-08-20T11:48:24.218Z,57.40
2017-08-20T11:50:52.633Z,57.60
2017-08-20T11:53:21.091Z,57.10
2017-08-20T11:55:49.501Z,57.30
2017-08-20T11:58:17.938Z,57.70
2017-08-20T12:00:46.497Z,58.50
2017-08-20T12:03:14.906Z,63.30
2017-08-20T12:05:43.335Z,59.00
2017-08-20T12:08:11.790Z,56.90
2017-08-20T12:10:40.216Z,61.50
2017-08-20T12:13:08.626Z,59.40
2017-08-20T12:15:37.065Z,60.10
2017-08-20T12:18:05.468Z,63.00
2017-08-20T12:20:33.905Z,65.20
2017-08-20T12:23:02.433Z,61.60
2017-08-20T12:25:31.025Z,55.70
2017-08-20T12:27:59.498Z,55.10
2017-08-20T12:30:28.005Z,55.80
2017-08-20T12:32:56.407Z,52.60
2017-08-20T12:35:24.858Z,48.40
2017-08-20T12:37:53.286Z,49.90
2017-08-20T12:40:21.783Z,47.70
2017-08-20T12:42:50.528Z,44.70
2017-08-20T12:45:18.941Z,45.10
2017-08-20T12:47:47.455Z,43.60
2017-08-20T12:50:15.932Z,43.70
2017-08-20T12:52:44.362Z,45.00
2017-08-20T12:55:12.794Z,47.80
2017-08-20T12:57:41.285Z,45.20
2017-08-20T13:00:09.754Z,48.00
2017-08-20T13:02:38.236Z,45.40
2017-08-20T13:05:06.658Z,43.40
2017-08-20T13:07:35.098Z,42.30
2017-08-20T13:10:03.524Z,44.10
2017-08-20T13:12:31.617Z,46.20
2017-08-20T13:15:00.027Z,46.70
2017-08-20T13:17:28.482Z,45.80
2017-08-20T13:19:56.885Z,44.40
2017-08-20T13:22:25.307Z,49.90
2017-08-20T13:24:53.760Z,47.50
2017-08-20T13:27:22.234Z,47.70
2017-08-20T13:29:50.735Z,47.90
2017-08-20T13:32:19.180Z,46.50
2017-08-20T13:34:47.594Z,46.60
2017-08-20T13:37:16.028Z,48.40
2017-08-20T13:39:44.455Z,45.10
2017-08-20T13:42:12.864Z,46.50
2017-08-20T13:44:41.336Z,45.90
2017-08-20T13:47:09.763Z,43.70
2017-08-20T13:49:38.174Z,43.90
2017-08-20T13:52:06.600Z,43.70
2017-08-20T13:54:35.014Z,45.30
2017-08-20T13:57:03.425Z,45.30
2017-08-20T13:59:32.641Z,43.60
2017-08-20T14:02:01.040Z,43.60
2017-08-20T14:04:29.483Z,45.30
2017-08-20T14:06:57.966Z,43.70
2017-08-20T14:09:26.514Z,44.10
2017-08-20T14:11:54.963Z,43.70
2017-08-20T14:14:23.424Z,44.10
2017-08-20T14:16:51.939Z,45.80
2017-08-20T14:19:20.421Z,42.80
2017-08-20T14:21:48.876Z,43.90
2017-08-20T14:24:17.958Z,43.70
2017-08-20T14:26:46.450Z,43.10
2017-08-20T14:29:14.946Z,45.10
2017-08-20T14:31:43.442Z,44.70
2017-08-20T14:34:11.898Z,41.60
2017-08-20T14:36:40.347Z,44.10
2017-08-20T14:39:08.860Z,43.40
2017-08-20T14:41:37.350Z,43.40
2017-08-20T14:44:05.858Z,41.80
2017-08-20T14:46:34.402Z,43.40
2017-08-20T14:49:02.868Z,41.50
2017-08-20T14:51:31.328Z,43.60
2017-08-20T14:53:59.815Z,42.10
2017-08-20T14:56:28.266Z,43.00
2017-08-20T14:58:56.699Z,42.40
2017-08-20T15:01:25.165Z,43.20
2017-08-20T15:03:53.640Z,42.90
2017-08-20T15:06:22.089Z,41.80
2017-08-20T15:08:50.565Z,44.50
2017-08-20T15:11:19.034Z,43.00
2017-08-20T15:13:47.511Z,43.50
2017-08-20T15:16:16.061Z,44.40
2017-08-20T15:18:44.511Z,45.00
2017-08-20T15:21:12.960Z,42.50
2017-08-20T15:23:41.433Z,44.50
2017-08-20T15:26:09.898Z,44.50
2017-08-20T15:28:38.368Z,44.50
2017-08-20T15:31:06.910Z,45.50
2017-08-20T15:33:35.352Z,48.40
2017-08-20T15:36:03.791Z,46.90
2017-08-20T15:38:32.300Z,45.60
2017-08-20T15:41:00.762Z,44.90
2017-08-20T15:43:29.217Z,46.20
2017-08-20T15:45:57.675Z,45.10
2017-08-20T15:48:26.122Z,45.70
2017-08-20T15:50:54.550Z,44.60
2017-08-20T15:53:23.018Z,46.60
2017-08-20T15:55:51.455Z,46.40
2017-08-20T15:58:19.883Z,45.60
2017-08-20T16:00:48.362Z,45.00
2017-08-20T16:03:16.876Z,43.80
2017-08-20T16:05:45.334Z,46.90
2017-08-20T16:08:13.810Z,46.10
2017-08-20T16:10:42.234Z,47.10
2017-08-20T16:13:10.704Z,48.40
2017-08-20T16:15:39.196Z,46.40
2017-08-20T16:18:07.647Z,46.30
2017-08-20T16:20:36.135Z,47.90
2017-08-20T16:23:04.635Z,46.80
2017-08-20T16:25:33.117Z,48.20
2017-08-20T16:28:01.563Z,47.60
2017-08-20T16:30:30.034Z,48.10
2017-08-20T16:32:58.473Z,46.90
2017-08-20T16:35:26.916Z,47.60
2017-08-20T16:37:55.398Z,47.30
2017-08-20T16:40:23.883Z,48.90
2017-08-20T16:42:52.404Z,50.20
2017-08-20T16:45:20.839Z,48.50
2017-08-20T16:47:49.365Z,47.90
2017-08-20T16:50:17.814Z,49.20
2017-08-20T16:52:46.261Z,50.30
2017-08-20T16:55:14.721Z,50.00
2017-08-20T16:57:43.170Z,50.80
2017-08-20T17:00:11.633Z,52.20
2017-08-20T17:02:40.078Z,52.70
2017-08-20T17:05:08.543Z,54.30
2017-08-20T17:07:37.005Z,53.80
2017-08-20T17:10:05.462Z,53.30
2017-08-20T17:12:33.925Z,54.20
2017-08-20T17:15:02.430Z,54.40
2017-08-20T17:17:30.878Z,54.40
2017-08-20T17:19:59.331Z,55.90
2017-08-20T17:22:27.799Z,59.30
2017-08-20T17:24:56.242Z,61.20
2017-08-20T17:27:24.706Z,61.10
2017-08-20T17:29:53.191Z,63.80
2017-08-20T17:32:21.658Z,65.00
2017-08-20T17:34:50.122Z,67.90
2017-08-20T17:37:18.595Z,69.00
2017-08-20T17:39:47.068Z,71.70
2017-08-20T17:42:15.548Z,73.70
2017-08-20T17:44:44.015Z,76.20
2017-08-20T17:47:12.489Z,75.30
2017-08-20T17:49:40.969Z,77.30
2017-08-20T17:52:09.447Z,77.70
2017-08-20T17:54:37.899Z,78.00
2017-08-20T17:57:06.455Z,79.40
2017-08-20T17:59:34.944Z,80.00
2017-08-20T18:02:03.386Z,80.10
2017-08-20T18:04:31.848Z,80.60
2017-08-20T18:07:00.291Z,81.00
2017-08-20T18:09:28.734Z,81.80
2017-08-20T18:11:57.274Z,84.20
2017-08-20T18:14:25.702Z,83.20
2017-08-20T18:16:54.241Z,82.20
2017-08-20T18:19:22.697Z,83.00
2017-08-20T18:21:51.250Z,83.30
2017-08-20T18:24:19.891Z,84.40
2017-08-20T18:26:48.325Z,85.20
2017-08-20T18:29:16.821Z,84.80
2017-08-20T18:31:45.929Z,86.60
2017-08-20T18:34:14.872Z,86.70
2017-08-20T18:36:43.824Z,87.50
2017-08-20T18:39:13.006Z,87.30
2017-08-20T18:41:42.053Z,87.20
2017-08-20T18:44:11.163Z,88.20
2017-08-20T18:46:40.651Z,87.10
2017-08-20T18:49:09.687Z,86.50
2017-08-20T18:51:38.646Z,87.30
2017-08-20T18:54:07.652Z,86.60
2017-08-20T18:56:37.142Z,86.00
2017-08-20T18:59:06.188Z,86.40
2017-08-20T19:01:35.478Z,87.20
2017-08-20T19:04:06.327Z,86.90
2017-08-20T19:06:35.248Z,88.50
2017-08-20T19:09:03.919Z,89.10
2017-08-20T19:11:33.723Z,89.40
2017-08-20T19:14:03.607Z,90.30
2017-08-20T19:16:32.614Z,90.90
2017-08-20T19:19:01.525Z,90.90
2017-08-20T19:21:31.292Z,90.80
2017-08-20T19:24:02.171Z,91.50
2017-08-20T19:26:31.108Z,91.30
2017-08-20T19:29:01.286Z,91.60
2017-08-20T19:31:30.215Z,92.10
2017-08-20T19:33:58.975Z,92.00
2017-08-20T19:36:27.889Z,92.30
2017-08-20T19:38:56.842Z,92.30
2017-08-20T19:41:26.690Z,92.50
2017-08-20T19:43:56.444Z,92.90
2017-08-20T19:46:25.396Z,92.50
2017-08-20T19:48:54.434Z,92.60
2017-08-20T19:51:24.306Z,93.30
2017-08-20T19:53:55.158Z,93.30
2017-08-20T19:56:23.658Z,93.30
2017-08-20T19:58:52.871Z,93.60
2017-08-20T20:01:21.309Z,93.60
2017-08-20T20:03:49.770Z,93.60
2017-08-20T20:06:18.197Z,93.80
2017-08-20T20:08:46.673Z,94.80
2017-08-20T20:11:15.214Z,94.10
2017-08-20T20:13:43.692Z,94.70
2017-08-20T20:16:12.178Z,94.00
2017-08-20T20:18:40.878Z,94.70
2017-08-20T20:21:09.327Z,94.90
2017-08-20T20:23:37.773Z,94.50
2017-08-20T20:26:06.218Z,94.40
2017-08-20T20:28:34.975Z,94.80
2017-08-20T20:31:03.430Z,95.20
2017-08-20T20:33:31.875Z,95.30
2017-08-20T20:36:00.343Z,95.40
2017-08-20T20:38:29.066Z,95.20
2017-08-20T20:40:57.554Z,95.00
2017-08-20T20:43:26.280Z,95.10
2017-08-20T20:45:54.886Z,94.90
2017-08-20T20:48:23.321Z,94.70
2017-08-20T20:50:52.058Z,95.00
2017-08-20T20:53:21.510Z,95.20
2017-08-20T20:55:50.195Z,95.20
2017-08-20T20:58:18.649Z,95.40
2017-08-20T21:00:47.065Z,95.30
2017-08-20T21:03:15.766Z,95.10
2017-08-20T21:05:44.505Z,95.40
2017-08-20T21:08:13.237Z,95.20
2017-08-20T21:10:41.947Z,95.20
2017-08-20T21:13:10.656Z,95.20
2017-08-20T21:15:39.340Z,95.60
2017-08-20T21:18:08.071Z,95.50
2017-08-20T21:20:36.515Z,95.30
2017-08-20T21:23:04.994Z,95.60
2017-08-20T21:25:33.786Z,96.60
2017-08-20T21:28:02.470Z,97.20
2017-08-20T21:30:31.180Z,96.10
2017-08-20T21:32:59.663Z,96.50
2017-08-20T21:35:28.363Z,96.30
2017-08-20T21:37:57.096Z,95.70
2017-08-20T21:40:25.849Z,95.80
2017-08-20T21:42:54.577Z,96.10
2017-08-20T21:45:23.296Z,95.90
2017-08-20T21:47:52.047Z,96.10
2017-08-20T21:50:20.755Z,96.10
2017-08-20T21:52:49.477Z,96.10
2017-08-20T21:55:18.245Z,96.10
2017-08-20T21:57:47.013Z,96.20
2017-08-20T22:00:16.492Z,96.30
2017-08-20T22:02:45.227Z,96.20
2017-08-20T22:05:14.011Z,96.50
2017-08-20T22:07:43.579Z,96.40
2017-08-20T22:10:12.354Z,96.30
2017-08-20T22:12:41.110Z,96.40
2017-08-20T22:15:09.983Z,96.50
2017-08-20T22:17:38.726Z,96.70
2017-08-20T22:20:07.465Z,96.40
2017-08-20T22:22:36.162Z,96.40
2017-08-20T22:25:05.115Z,96.30
2017-08-20T22:27:33.861Z,96.90
2017-08-20T22:30:02.596Z,96.30
2017-08-20T22:32:31.371Z,96.70
2017-08-20T22:35:00.079Z,96.70
2017-08-20T22:37:28.826Z,96.50
2017-08-20T22:39:57.568Z,96.60
2017-08-20T22:42:26.284Z,96.30
2017-08-20T22:44:55.041Z,96.40
2017-08-20T22:47:23.832Z,96.60
2017-08-20T22:49:52.552Z,96.80
2017-08-20T22:52:21.333Z,97.10
2017-08-20T22:54:50.051Z,96.70
2017-08-20T22:57:21.860Z,96.60
2017-08-20T22:59:50.602Z,96.60
2017-08-20T23:02:19.361Z,96.70
2017-08-20T23:04:48.077Z,96.50
2017-08-20T23:07:16.842Z,96.40
2017-08-20T23:09:45.695Z,96.80
2017-08-20T23:12:14.468Z,97.00
2017-08-20T23:14:43.206Z,97.40
2017-08-20T23:17:11.954Z,96.60
2017-08-20T23:19:40.741Z,96.60
2017-08-20T23:22:09.506Z,96.70
2017-08-20T23:24:38.227Z,97.10
2017-08-20T23:27:06.943Z,97.30
2017-08-20T23:29:35.721Z,96.90
2017-08-20T23:32:04.457Z,97.00
2017-08-20T23:34:33.230Z,97.00
2017-08-20T23:37:02.038Z,96.90
2017-08-20T23:39:30.777Z,97.30
2017-08-20T23:41:59.495Z,97.60
2017-08-20T23:44:28.286Z,97.00
2017-08-20T23:46:57.057Z,96.90
2017-08-20T23:49:25.835Z,97.10
2017-08-20T23:51:54.614Z,97.40
2017-08-20T23:54:23.408Z,97.20
2017-08-20T23:56:52.529Z,97.40
2017-08-20T23:59:21.250Z,98.20
